createdAt,value
2023-04-17T00:01:33.334Z,99508.40
2023-04-17T00:04:01.369Z,99500.20
2023-04-17T00:06:30.062Z,99504.60
2023-04-17T00:08:58.035Z,99498.20
2023-04-17T00:11:26.509Z,99497.40
2023-04-17T00:13:54.319Z,99491.40
2023-04-17T00:16:22.294Z,99492.00
2023-04-17T00:18:50.102Z,99495.20
2023-04-17T00:21:17.938Z,99493.80
2023-04-17T00:23:46.259Z,99493.20
2023-04-17T00:26:15.446Z,99499.20
2023-04-17T00:28:43.763Z,99503.80
2023-04-17T00:31:11.601Z,99497.00
2023-04-17T00:33:39.770Z,99497.20
2023-04-17T00:36:09.528Z,99492.60
2023-04-17T00:38:37.256Z,99487.00
2023-04-17T00:41:05.278Z,99490.20
2023-04-17T00:43:33.219Z,99493.00
2023-04-17T00:46:01.539Z,99488.20
2023-04-17T00:48:29.605Z,99491.80
2023-04-17T00:51:02.221Z,99491.00
2023-04-17T00:53:33.508Z,99493.00
2023-04-17T00:56:03.804Z,99496.60
2023-04-17T00:58:31.858Z,99492.80
2023-04-17T01:00:59.881Z,99496.60
2023-04-17T01:03:30.137Z,99497.20
2023-04-17T01:05:58.825Z,99500.00
2023-04-17T01:08:26.741Z,99497.80
2023-04-17T01:10:54.657Z,99499.60
2023-04-17T01:13:22.597Z,99500.40
2023-04-17T01:15:52.896Z,99502.80
2023-04-17T01:18:21.015Z,99501.80
2023-04-17T01:20:48.797Z,99499.80
2023-04-17T01:23:17.202Z,99501.00
2023-04-17T01:25:46.328Z,99496.60
2023-04-17T01:28:14.707Z,99495.80
2023-04-17T01:30:42.686Z,99488.00
2023-04-17T01:33:11.184Z,99488.00
2023-04-17T01:35:39.022Z,99488.80
2023-04-17T01:38:07.470Z,99494.00
2023-04-17T01:40:35.730Z,99488.60
2023-04-17T01:43:03.578Z,99492.40
2023-04-17T01:45:31.469Z,99497.80
2023-04-17T01:48:01.115Z,99494.20
2023-04-17T01:50:29.023Z,99497.20
2023-04-17T01:52:56.820Z,99500.40
2023-04-17T01:55:24.842Z,99497.20
2023-04-17T01:57:53.337Z,99497.40
2023-04-17T02:00:21.535Z,99500.00
2023-04-17T02:02:49.513Z,99500.00
2023-04-17T02:05:17.850Z,99498.60
2023-04-17T02:07:45.741Z,99502.80
2023-04-17T02:10:13.779Z,99499.40
2023-04-17T02:12:41.603Z,99499.40
2023-04-17T02:15:10.574Z,99508.00
2023-04-17T02:17:38.446Z,99501.40
2023-04-17T02:23:50.680Z,99513.20
2023-04-17T02:26:17.172Z,99509.80
2023-04-17T02:28:47.167Z,99512.20
2023-04-17T02:31:14.269Z,99523.20
2023-04-17T02:33:40.970Z,99517.60
2023-04-17T02:36:08.850Z,99520.60
2023-04-17T02:38:38.607Z,99518.60
2023-04-17T02:41:06.074Z,99516.40
2023-04-17T02:43:32.720Z,99517.00
2023-04-17T02:45:59.336Z,99518.40
2023-04-17T02:48:26.233Z,99519.60
2023-04-17T02:50:55.833Z,99519.40
2023-04-17T02:53:22.590Z,99509.60
2023-04-17T02:55:49.321Z,99513.20
2023-04-17T02:58:17.396Z,99511.80
2023-04-17T03:00:44.173Z,99514.80
2023-04-17T03:03:14.535Z,99514.00
2023-04-17T03:05:41.309Z,99514.40
2023-04-17T03:08:08.997Z,99516.00
2023-04-17T03:10:43.884Z,99514.40
2023-04-17T03:13:10.463Z,99515.80
2023-04-17T03:15:36.954Z,99524.20
2023-04-17T03:18:03.737Z,99522.60
2023-04-17T03:20:30.393Z,99525.20
2023-04-17T03:22:56.856Z,99520.00
2023-04-17T03:25:23.412Z,99528.80
2023-04-17T03:27:53.054Z,99528.00
2023-04-17T03:30:21.773Z,99525.00
2023-04-17T03:32:50.120Z,99527.40
2023-04-17T03:35:16.667Z,99529.20
2023-04-17T03:37:43.867Z,99524.80
2023-04-17T03:40:11.373Z,99527.40
2023-04-17T03:42:37.976Z,99533.00
2023-04-17T03:45:05.820Z,99533.00
2023-04-17T03:47:33.197Z,99532.40
2023-04-17T03:50:00.281Z,99538.40
2023-04-17T03:52:29.012Z,99537.20
2023-04-17T03:54:57.539Z,99538.60
2023-04-17T03:57:25.015Z,99536.80
2023-04-17T03:59:52.104Z,99541.40
2023-04-17T04:02:19.234Z,99545.80
2023-04-17T04:04:49.889Z,99539.80
2023-04-17T04:07:16.580Z,99542.80
2023-04-17T04:09:44.813Z,99548.80
2023-04-17T04:12:11.838Z,99548.60
2023-04-17T04:14:41.848Z,99551.60
2023-04-17T04:17:09.260Z,99552.80
2023-04-17T04:19:35.859Z,99551.60
2023-04-17T04:22:06.248Z,99550.60
2023-04-17T04:24:39.959Z,99559.00
2023-04-17T04:27:06.718Z,99556.60
2023-04-17T04:29:37.135Z,99562.80
2023-04-17T04:32:09.118Z,99565.60
2023-04-17T04:34:38.604Z,99569.60
2023-04-17T04:37:05.561Z,99564.40
2023-04-17T04:39:43.462Z,99565.00
2023-04-17T04:42:21.011Z,99566.00
2023-04-17T04:45:13.592Z,99568.20
2023-04-17T04:47:40.861Z,99562.00
2023-04-17T04:50:08.606Z,99573.20
2023-04-17T04:52:35.960Z,99567.60
2023-04-17T04:55:08.470Z,99572.40
2023-04-17T04:57:38.232Z,99572.60
2023-04-17T05:00:08.327Z,99569.00
2023-04-17T05:02:46.215Z,99578.60
2023-04-17T05:05:16.801Z,99584.80
2023-04-17T05:07:43.249Z,99583.00
2023-04-17T05:10:11.628Z,99586.80
2023-04-17T05:12:42.495Z,99587.60
2023-04-17T05:15:10.162Z,99586.00
2023-04-17T05:17:38.421Z,99588.80
2023-04-17T05:20:06.681Z,99595.60
2023-04-17T05:22:34.590Z,99593.20
2023-04-17T05:25:08.109Z,99601.00
2023-04-17T05:27:34.821Z,99597.40
2023-04-17T05:30:01.397Z,99603.40
2023-04-17T05:32:30.412Z,99600.00
2023-04-17T05:35:07.383Z,99601.60
2023-04-17T05:37:34.990Z,99600.20
2023-04-17T05:40:06.380Z,99601.00
2023-04-17T05:42:34.110Z,99599.00
2023-04-17T05:45:00.920Z,99609.00
2023-04-17T05:47:27.670Z,99609.40
2023-04-17T05:49:57.538Z,99608.20
2023-04-17T05:52:25.060Z,99611.60
2023-04-17T05:54:52.254Z,99617.00
2023-04-17T05:57:20.020Z,99614.80
2023-04-17T05:59:48.486Z,99611.00
2023-04-17T06:02:15.972Z,99610.80
2023-04-17T06:04:46.319Z,99612.20
2023-04-17T06:07:13.013Z,99606.80
2023-04-17T06:09:40.527Z,99609.80
2023-04-17T06:12:14.146Z,99604.40
2023-04-17T06:14:41.421Z,99604.20
2023-04-17T06:17:08.275Z,99602.00
2023-04-17T06:19:35.328Z,99609.40
2023-04-17T06:22:02.320Z,99605.60
2023-04-17T06:24:28.829Z,99602.80
2023-04-17T06:26:55.979Z,99607.80
2023-04-17T06:29:23.482Z,99611.20
2023-04-17T06:31:50.355Z,99605.00
2023-04-17T06:34:18.465Z,99610.80
2023-04-17T06:36:45.784Z,99607.60
2023-04-17T06:39:14.757Z,99611.20
2023-04-17T06:41:41.341Z,99616.80
2023-04-17T06:44:07.940Z,99616.20
2023-04-17T06:46:45.761Z,99609.80
2023-04-17T06:49:12.690Z,99612.40
2023-04-17T06:51:39.431Z,99610.80
2023-04-17T06:54:05.966Z,99604.20
2023-04-17T06:56:32.726Z,99601.60
2023-04-17T06:59:00.779Z,99599.20
2023-04-17T07:01:30.587Z,99599.40
2023-04-17T07:03:57.285Z,99601.00
2023-04-17T07:06:26.030Z,99606.60
2023-04-17T07:08:54.905Z,99607.00
2023-04-17T07:11:22.092Z,99607.40
2023-04-17T07:13:48.651Z,99612.40
2023-04-17T07:16:15.784Z,99610.20
2023-04-17T07:18:42.328Z,99613.00
2023-04-17T07:21:09.004Z,99613.40
2023-04-17T07:23:35.632Z,99619.60
2023-04-17T07:26:02.286Z,99625.60
2023-04-17T07:28:28.975Z,99626.40
2023-04-17T07:30:57.496Z,99629.20
2023-04-17T07:33:24.188Z,99632.60
2023-04-17T07:35:50.874Z,99632.20
2023-04-17T07:38:17.325Z,99637.80
2023-04-17T07:40:43.928Z,99637.00
2023-04-17T07:43:10.591Z,99644.80
2023-04-17T07:45:38.573Z,99646.60
2023-04-17T07:48:06.398Z,99639.00
2023-04-17T07:50:32.992Z,99641.40
2023-04-17T07:52:59.385Z,99643.80
2023-04-17T07:55:25.841Z,99646.40
2023-04-17T07:57:52.463Z,99650.20
2023-04-17T08:00:20.615Z,99647.40
2023-04-17T08:02:47.852Z,99651.00
2023-04-17T08:05:14.545Z,99650.60
2023-04-17T08:07:42.744Z,99648.60
2023-04-17T08:10:09.424Z,99651.00
2023-04-17T08:12:36.383Z,99658.00
2023-04-17T08:15:03.626Z,99659.20
2023-04-17T08:17:30.291Z,99656.60
2023-04-17T08:19:57.021Z,99660.80
2023-04-17T08:22:24.967Z,99654.00
2023-04-17T08:24:56.943Z,99655.80
2023-04-17T08:27:24.958Z,99654.80
2023-04-17T08:29:53.016Z,99661.00
2023-04-17T08:32:20.698Z,99661.80
2023-04-17T08:34:47.450Z,99665.60
2023-04-17T08:37:14.012Z,99660.40
2023-04-17T08:40:14.676Z,99672.80
2023-04-17T08:42:54.101Z,99669.20
2023-04-17T08:45:22.157Z,99671.60
2023-04-17T08:47:48.715Z,99677.80
2023-04-17T08:50:18.080Z,99671.80
2023-04-17T08:52:49.120Z,99675.60
2023-04-17T08:55:24.738Z,99675.20
2023-04-17T08:58:03.386Z,99674.00
2023-04-17T09:00:32.258Z,99673.00
2023-04-17T09:02:59.922Z,99674.00
2023-04-17T09:05:29.825Z,99674.40
2023-04-17T09:08:10.862Z,99676.80
2023-04-17T09:10:42.603Z,99673.80
2023-04-17T09:13:11.514Z,99675.60
2023-04-17T09:15:38.033Z,99680.00
2023-04-17T09:18:04.786Z,99683.00
2023-04-17T09:20:32.301Z,99683.00
2023-04-17T09:23:01.698Z,99685.40
2023-04-17T09:25:28.647Z,99684.00
2023-04-17T09:28:08.819Z,99685.00
2023-04-17T09:30:38.734Z,99684.80
2023-04-17T09:33:06.289Z,99686.40
2023-04-17T09:35:33.056Z,99683.40
2023-04-17T09:37:59.584Z,99683.80
2023-04-17T09:40:35.318Z,99682.20
2023-04-17T09:43:03.784Z,99686.20
2023-04-17T09:45:34.799Z,99685.20
2023-04-17T09:48:06.370Z,99687.40
2023-04-17T09:50:33.346Z,99681.40
2023-04-17T09:53:00.393Z,99684.60
2023-04-17T09:55:29.318Z,99687.20
2023-04-17T09:57:58.131Z,99685.40
2023-04-17T10:00:28.808Z,99685.60
2023-04-17T10:02:57.507Z,99680.80
2023-04-17T10:05:29.196Z,99691.80
2023-04-17T10:07:56.240Z,99691.40
2023-04-17T10:10:30.410Z,99689.60
2023-04-17T10:12:59.749Z,99688.60
2023-04-17T10:15:26.494Z,99692.60
2023-04-17T10:17:55.598Z,99700.40
2023-04-17T10:20:27.606Z,99688.00
2023-04-17T10:22:55.350Z,99698.20
2023-04-17T10:25:25.593Z,99693.40
2023-04-17T10:27:57.780Z,99693.20
2023-04-17T10:30:25.987Z,99694.60
2023-04-17T10:33:24.134Z,99694.40
2023-04-17T10:35:50.846Z,99693.40
2023-04-17T10:38:31.107Z,99693.00
2023-04-17T10:41:00.567Z,99683.80
2023-04-17T10:43:26.922Z,99690.60
2023-04-17T10:46:12.935Z,99691.20
2023-04-17T10:48:51.815Z,99690.40
2023-04-17T10:51:25.755Z,99688.60
2023-04-17T10:53:59.559Z,99694.60
2023-04-17T10:56:34.782Z,99687.80
2023-04-17T10:59:03.057Z,99681.60
2023-04-17T11:01:46.854Z,99683.20
2023-04-17T11:04:33.350Z,99680.80
2023-04-17T11:07:00.105Z,99682.40
2023-04-17T11:09:28.111Z,99684.60
2023-04-17T11:11:58.102Z,99682.20
2023-04-17T11:14:25.823Z,99674.80
2023-04-17T11:16:52.431Z,99676.20
2023-04-17T11:19:25.537Z,99678.20
2023-04-17T11:21:54.252Z,99680.60
2023-04-17T11:24:29.083Z,99680.60
2023-04-17T11:27:01.430Z,99686.00
2023-04-17T11:29:28.317Z,99689.00
2023-04-17T11:31:56.170Z,99689.00
2023-04-17T11:34:24.316Z,99698.80
2023-04-17T11:36:58.851Z,99691.80
2023-04-17T11:39:28.412Z,99698.40
2023-04-17T11:41:56.527Z,99703.20
2023-04-17T11:44:23.569Z,99702.40
2023-04-17T11:46:55.438Z,99702.00
2023-04-17T11:49:26.832Z,99701.20
2023-04-17T11:51:54.315Z,99698.40
2023-04-17T11:54:28.052Z,99704.80
2023-04-17T11:57:04.971Z,99703.60
2023-04-17T11:59:38.991Z,99700.80
2023-04-17T12:02:06.597Z,99695.60
2023-04-17T12:04:34.815Z,99697.40
2023-04-17T12:07:03.136Z,99700.20
2023-04-17T12:09:31.137Z,99703.80
2023-04-17T12:11:59.077Z,99704.20
2023-04-17T12:14:26.512Z,99702.20
2023-04-17T12:16:53.174Z,99708.20
2023-04-17T12:19:19.919Z,99711.60
2023-04-17T12:21:49.280Z,99710.80
2023-04-17T12:24:18.629Z,99712.20
2023-04-17T12:26:49.349Z,99714.20
2023-04-17T12:29:16.151Z,99709.60
2023-04-17T12:31:43.876Z,99714.20
2023-04-17T12:34:10.469Z,99716.80
2023-04-17T12:36:37.562Z,99719.20
2023-04-17T12:39:04.183Z,99721.80
2023-04-17T12:41:31.413Z,99723.40
2023-04-17T12:44:00.906Z,99721.60
2023-04-17T12:46:27.460Z,99715.00
2023-04-17T12:48:57.916Z,99721.60
2023-04-17T12:51:27.487Z,99719.00
2023-04-17T12:53:55.195Z,99722.20
2023-04-17T12:56:22.397Z,99722.00
2023-04-17T12:58:48.820Z,99719.20
2023-04-17T13:01:15.551Z,99719.60
2023-04-17T13:03:42.363Z,99715.40
2023-04-17T13:06:08.968Z,99723.00
2023-04-17T13:08:35.698Z,99719.60
2023-04-17T13:11:03.488Z,99714.20
2023-04-17T13:13:30.117Z,99709.40
2023-04-17T13:15:56.602Z,99710.20
2023-04-17T13:18:23.096Z,99712.20
2023-04-17T13:20:49.556Z,99708.00
2023-04-17T13:23:15.972Z,99705.60
2023-04-17T13:25:42.452Z,99708.20
2023-04-17T13:28:08.889Z,99701.20
2023-04-17T13:30:36.510Z,99699.60
2023-04-17T13:33:03.224Z,99701.80
2023-04-17T13:35:29.928Z,99698.40
2023-04-17T13:38:00.118Z,99699.80
2023-04-17T13:40:26.622Z,99702.80
2023-04-17T13:42:54.037Z,99703.80
2023-04-17T13:45:21.070Z,99694.40
2023-04-17T13:47:47.711Z,99691.00
2023-04-17T13:50:14.265Z,99680.00
2023-04-17T13:52:40.765Z,99679.00
2023-04-17T13:55:11.118Z,99681.00
2023-04-17T13:57:37.637Z,99683.20
2023-04-17T14:00:05.767Z,99676.20
2023-04-17T14:02:32.968Z,99679.60
2023-04-17T14:04:59.868Z,99677.80
2023-04-17T14:07:27.061Z,99676.80
2023-04-17T14:09:53.497Z,99674.20
2023-04-17T14:12:21.163Z,99676.60
2023-04-17T14:14:47.667Z,99673.40
2023-04-17T14:17:14.284Z,99676.40
2023-04-17T14:19:40.843Z,99674.60
2023-04-17T14:22:07.247Z,99672.00
2023-04-17T14:24:33.807Z,99672.40
2023-04-17T14:27:01.135Z,99664.80
2023-04-17T14:29:27.906Z,99667.80
2023-04-17T14:31:54.591Z,99662.60
2023-04-17T14:34:21.229Z,99661.00
2023-04-17T14:36:48.033Z,99666.00
2023-04-17T14:39:14.741Z,99664.20
2023-04-17T14:41:41.420Z,99671.20
2023-04-17T14:44:07.931Z,99681.00
2023-04-17T14:46:34.372Z,99680.00
2023-04-17T14:49:00.927Z,99688.40
2023-04-17T14:51:27.776Z,99692.00
2023-04-17T14:53:54.302Z,99694.20
2023-04-17T14:56:23.601Z,99695.60
2023-04-17T14:58:51.065Z,99690.60
2023-04-17T15:01:17.805Z,99688.40
2023-04-17T15:03:47.478Z,99698.00
2023-04-17T15:06:15.480Z,99694.20
2023-04-17T15:08:42.084Z,99698.20
2023-04-17T15:11:08.586Z,99693.40
2023-04-17T15:13:35.390Z,99694.80
2023-04-17T15:16:02.044Z,99694.80
2023-04-17T15:18:28.662Z,99690.80
2023-04-17T15:20:55.661Z,99692.80
2023-04-17T15:23:22.489Z,99693.00
2023-04-17T15:25:49.001Z,99692.20
2023-04-17T15:28:15.405Z,99692.20
2023-04-17T15:30:42.125Z,99691.40
2023-04-17T15:33:10.092Z,99686.60
2023-04-17T15:35:38.109Z,99687.20
2023-04-17T15:38:07.518Z,99687.60
2023-04-17T15:40:33.911Z,99687.00
2023-04-17T15:43:00.999Z,99686.20
2023-04-17T15:45:27.518Z,99686.20
2023-04-17T15:47:54.035Z,99688.00
2023-04-17T15:50:20.802Z,99691.00
2023-04-17T15:52:47.664Z,99685.60
2023-04-17T15:55:14.414Z,99688.80
2023-04-17T15:57:42.870Z,99687.40
2023-04-17T16:00:10.980Z,99687.20
2023-04-17T16:02:37.445Z,99695.40
2023-04-17T16:05:05.366Z,99686.40
2023-04-17T16:07:32.005Z,99686.80
2023-04-17T16:09:58.516Z,99686.00
2023-04-17T16:12:27.373Z,99692.60
2023-04-17T16:14:53.759Z,99692.40
2023-04-17T16:17:20.226Z,99689.20
2023-04-17T16:19:48.354Z,99693.60
2023-04-17T16:22:18.053Z,99690.00
2023-04-17T16:24:44.595Z,99691.40
2023-04-17T16:27:11.133Z,99687.40
2023-04-17T16:29:37.694Z,99689.60
2023-04-17T16:32:04.284Z,99685.20
2023-04-17T16:34:30.928Z,99685.20
2023-04-17T16:36:57.348Z,99685.40
2023-04-17T16:39:24.095Z,99688.80
2023-04-17T16:41:52.076Z,99689.40
2023-04-17T16:44:18.613Z,99694.40
2023-04-17T16:47:03.112Z,99693.80
2023-04-17T16:49:32.061Z,99701.60
2023-04-17T16:51:59.139Z,99696.80
2023-04-17T16:54:25.995Z,99702.00
2023-04-17T16:56:52.772Z,99704.80
2023-04-17T16:59:19.251Z,99705.20
2023-04-17T17:01:49.243Z,99708.00
2023-04-17T17:04:16.736Z,99706.60
2023-04-17T17:06:43.826Z,99714.40
2023-04-17T17:09:10.708Z,99722.40
2023-04-17T17:11:37.380Z,99717.60
2023-04-17T17:14:04.195Z,99723.40
2023-04-17T17:16:30.819Z,99722.60
2023-04-17T17:18:57.636Z,99718.80
2023-04-17T17:21:24.058Z,99720.60
2023-04-17T17:23:50.961Z,99727.60
2023-04-17T17:26:17.780Z,99725.00
2023-04-17T17:28:50.369Z,99726.40
2023-04-17T17:31:17.008Z,99728.00
2023-04-17T17:36:11.604Z,99734.80
2023-04-17T17:38:38.410Z,99736.40
2023-04-17T17:41:05.479Z,99737.20
2023-04-17T17:43:32.116Z,99742.00
2023-04-17T17:45:58.778Z,99749.80
2023-04-17T17:48:25.251Z,99748.00
2023-04-17T17:50:56.814Z,99750.20
2023-04-17T17:53:26.162Z,99755.80
2023-04-17T17:55:55.038Z,99751.20
2023-04-17T17:58:21.418Z,99760.20
2023-04-17T18:00:49.685Z,99754.00
2023-04-17T18:03:16.803Z,99757.00
2023-04-17T18:05:44.680Z,99762.20
2023-04-17T18:08:13.217Z,99760.20
2023-04-17T18:10:39.775Z,99771.60
2023-04-17T18:13:06.914Z,99770.60
2023-04-17T18:15:33.729Z,99778.80
2023-04-17T18:18:01.108Z,99778.00
2023-04-17T18:20:28.070Z,99779.40
2023-04-17T18:22:54.489Z,99784.00
2023-04-17T18:25:21.072Z,99782.00
2023-04-17T18:27:47.455Z,99786.20
2023-04-17T18:30:14.870Z,99788.60
2023-04-17T18:32:41.288Z,99791.80
2023-04-17T18:35:08.513Z,99791.20
2023-04-17T18:37:35.116Z,99794.20
2023-04-17T18:40:02.081Z,99791.20
2023-04-17T18:42:28.501Z,99792.80
2023-04-17T18:44:55.208Z,99789.80
2023-04-17T18:47:21.759Z,99794.00
2023-04-17T18:49:52.299Z,99798.80
2023-04-17T18:52:19.239Z,99802.40
2023-04-17T18:54:45.835Z,99802.60
2023-04-17T18:57:12.317Z,99802.20
2023-04-17T18:59:39.762Z,99810.00
2023-04-17T19:02:07.728Z,99814.80
2023-04-17T19:04:34.251Z,99817.80
2023-04-17T19:07:02.032Z,99824.40
2023-04-17T19:09:28.668Z,99827.60
2023-04-17T19:11:56.721Z,99823.60
2023-04-17T19:14:23.999Z,99827.40
2023-04-17T19:16:50.660Z,99824.60
2023-04-17T19:19:17.610Z,99828.00
2023-04-17T19:21:44.054Z,99827.60
2023-04-17T19:24:10.774Z,99827.40
2023-04-17T19:26:37.562Z,99826.80
2023-04-17T19:29:04.450Z,99825.60
2023-04-17T19:31:32.210Z,99824.40
2023-04-17T19:33:59.676Z,99828.00
2023-04-17T19:36:26.777Z,99829.20
2023-04-17T19:38:55.097Z,99827.80
2023-04-17T19:41:21.757Z,99830.60
2023-04-17T19:43:50.348Z,99828.60
2023-04-17T19:46:18.075Z,99831.40
2023-04-17T19:48:45.164Z,99832.20
2023-04-17T19:51:12.114Z,99831.80
2023-04-17T19:53:40.047Z,99830.40
2023-04-17T19:56:08.446Z,99832.40
2023-04-17T19:58:35.863Z,99834.20
2023-04-17T20:01:02.870Z,99835.80
2023-04-17T20:03:30.048Z,99834.60
2023-04-17T20:05:57.166Z,99835.40
2023-04-17T20:08:24.509Z,99837.60
2023-04-17T20:10:50.942Z,99841.60
2023-04-17T20:13:17.317Z,99831.40
2023-04-17T20:15:43.684Z,99828.60
2023-04-17T20:18:10.554Z,99830.80
2023-04-17T20:20:37.258Z,99831.20
2023-04-17T20:23:03.967Z,99834.20
2023-04-17T20:25:30.403Z,99832.80
2023-04-17T20:27:56.908Z,99832.60
2023-04-17T20:30:23.288Z,99833.60
2023-04-17T20:32:50.088Z,99832.80
2023-04-17T20:35:16.943Z,99837.20
2023-04-17T20:37:43.861Z,99836.00
2023-04-17T20:40:13.244Z,99836.60
2023-04-17T20:42:41.416Z,99837.40
2023-04-17T20:45:08.440Z,99835.20
2023-04-17T20:47:35.131Z,99833.80
2023-04-17T20:50:01.825Z,99831.80
2023-04-17T20:52:28.493Z,99831.20
2023-04-17T20:54:55.261Z,99829.60
2023-04-17T20:57:22.368Z,99829.20
2023-04-17T20:59:48.770Z,99829.60
2023-04-17T21:02:15.617Z,99830.80
2023-04-17T21:04:42.197Z,99826.40
2023-04-17T21:07:08.591Z,99831.00
2023-04-17T21:09:34.921Z,99832.40
2023-04-17T21:12:01.349Z,99830.60
2023-04-17T21:14:28.852Z,99831.40
2023-04-17T21:16:57.837Z,99835.80
2023-04-17T21:19:26.567Z,99830.80
2023-04-17T21:21:53.825Z,99829.00
2023-04-17T21:24:20.739Z,99836.20
2023-04-17T21:26:47.147Z,99836.80
2023-04-17T21:29:16.384Z,99844.40
2023-04-17T21:31:43.134Z,99839.20
2023-04-17T21:34:09.755Z,99840.40
2023-04-17T21:36:36.109Z,99846.00
2023-04-17T21:39:02.523Z,99845.80
2023-04-17T21:41:31.135Z,99837.20
2023-04-17T21:44:01.946Z,99838.40
2023-04-17T21:46:28.694Z,99833.80
2023-04-17T21:48:55.284Z,99834.00
2023-04-17T21:51:22.186Z,99830.60
2023-04-17T21:53:48.606Z,99830.60
2023-04-17T21:56:14.954Z,99825.80
2023-04-17T21:58:41.379Z,99826.80
2023-04-17T22:01:07.851Z,99830.80
2023-04-17T22:07:04.910Z,99830.00
2023-04-17T22:09:32.763Z,99830.20
2023-04-17T22:12:13.818Z,99828.60
2023-04-17T22:14:41.793Z,99832.00
2023-04-17T22:17:09.618Z,99831.00
2023-04-17T22:19:37.460Z,99829.60
2023-04-17T22:22:05.317Z,99828.20
2023-04-17T22:24:33.409Z,99824.00
2023-04-17T22:27:02.045Z,99816.00
2023-04-17T22:29:30.039Z,99816.60
2023-04-17T22:31:58.048Z,99818.80
2023-04-17T22:34:25.860Z,99819.40
2023-04-17T22:36:53.686Z,99824.80
2023-04-17T22:39:21.500Z,99828.00
2023-04-17T22:41:49.341Z,99823.40
2023-04-17T22:44:17.293Z,99829.40
2023-04-17T22:46:45.443Z,99825.80
2023-04-17T22:49:15.004Z,99827.60
2023-04-17T22:51:43.163Z,99826.20
2023-04-17T22:54:21.330Z,99829.60
2023-04-17T22:56:51.083Z,99829.40
2023-04-17T22:59:19.056Z,99828.60
2023-04-17T23:01:47.210Z,99833.00
2023-04-17T23:04:15.573Z,99827.80
2023-04-17T23:06:44.285Z,99832.40
2023-04-17T23:09:12.357Z,99836.60
2023-04-17T23:11:40.154Z,99829.80
2023-04-17T23:14:08.092Z,99828.80
2023-04-17T23:16:36.039Z,99824.40
2023-04-17T23:19:05.048Z,99824.80
2023-04-17T23:21:33.238Z,99823.80
2023-04-17T23:24:01.055Z,99823.40
2023-04-17T23:26:28.809Z,99820.80
2023-04-17T23:28:56.811Z,99822.80
2023-04-17T23:31:24.579Z,99823.20
2023-04-17T23:33:52.371Z,99823.40
2023-04-17T23:36:20.840Z,99823.20
2023-04-17T23:38:48.670Z,99823.40
2023-04-17T23:41:16.513Z,99819.20
2023-04-17T23:43:44.333Z,99817.80
2023-04-17T23:46:12.497Z,99824.20
2023-04-17T23:48:40.475Z,99821.00
2023-04-17T23:51:09.356Z,99819.80
2023-04-17T23:53:37.076Z,99826.20
2023-04-17T23:56:05.295Z,99818.00
2023-04-17T23:58:33.030Z,99821.20
